createdAt,value
2018-07-25T00:02:26.505Z,11.13
2018-07-25T00:07:30.104Z,10.60
2018-07-25T00:12:33.665Z,10.43
2018-07-25T00:17:37.265Z,10.73
2018-07-25T00:22:40.832Z,9.93
2018-07-25T00:27:44.398Z,11.43
2018-07-25T00:32:47.976Z,10.93
2018-07-25T00:37:51.640Z,11.53
2018-07-25T00:42:55.277Z,13.10
2018-07-25T00:47:59.198Z,12.37
2018-07-25T00:53:02.755Z,10.93
2018-07-25T00:58:06.310Z,12.47
2018-07-25T01:03:10.956Z,10.60
2018-07-25T01:08:14.570Z,11.17
2018-07-25T01:13:18.124Z,11.70
2018-07-25T01:18:21.729Z,14.70
2018-07-25T01:23:25.315Z,13.70
2018-07-25T01:28:28.912Z,11.23
2018-07-25T01:33:32.534Z,11.13
2018-07-25T01:38:36.124Z,13.07
2018-07-25T01:43:39.727Z,11.77
2018-07-25T01:48:43.376Z,11.63
2018-07-25T01:53:46.953Z,12.10
2018-07-25T01:58:50.606Z,12.10
2018-07-25T02:03:54.168Z,14.20
2018-07-25T02:08:58.131Z,11.47
2018-07-25T02:14:01.698Z,12.53
2018-07-25T02:19:05.298Z,13.70
2018-07-25T02:24:08.876Z,13.73
2018-07-25T02:29:12.505Z,11.23
2018-07-25T02:34:20.734Z,13.20
2018-07-25T02:39:24.284Z,12.90
2018-07-25T02:44:27.862Z,12.00
2018-07-25T02:49:31.418Z,12.53
2018-07-25T02:54:35.034Z,14.30
2018-07-25T02:59:38.607Z,13.10
2018-07-25T03:04:42.182Z,13.73
2018-07-25T03:09:45.728Z,13.90
2018-07-25T03:14:49.292Z,15.83
2018-07-25T03:19:52.864Z,13.13
2018-07-25T03:24:56.397Z,16.53
2018-07-25T03:29:59.995Z,16.03
2018-07-25T03:35:04.392Z,14.80
2018-07-25T03:40:08.311Z,17.30
2018-07-25T03:45:11.926Z,14.63
2018-07-25T03:50:15.470Z,16.03
2018-07-25T03:55:19.066Z,13.87
2018-07-25T04:00:22.623Z,14.93
2018-07-25T04:05:26.155Z,15.87
2018-07-25T04:10:31.131Z,17.20
2018-07-25T04:15:34.670Z,16.00
2018-07-25T04:20:38.219Z,18.37
2018-07-25T04:25:41.780Z,15.23
2018-07-25T04:30:45.403Z,19.90
2018-07-25T04:35:49.027Z,25.73
2018-07-25T04:40:52.631Z,17.03
2018-07-25T04:45:56.309Z,14.77
2018-07-25T04:50:59.894Z,19.27
2018-07-25T04:56:03.440Z,16.87
2018-07-25T05:01:07.082Z,15.03
2018-07-25T05:06:10.616Z,17.53
2018-07-25T05:11:14.159Z,17.77
2018-07-25T05:16:18.819Z,16.53
2018-07-25T05:21:22.440Z,17.43
2018-07-25T05:26:25.991Z,17.40
2018-07-25T05:31:29.710Z,19.00
2018-07-25T05:36:33.294Z,23.13
2018-07-25T05:41:37.092Z,21.83
2018-07-25T05:46:40.649Z,22.23
2018-07-25T05:51:44.261Z,20.97
2018-07-25T05:56:47.806Z,24.40
2018-07-25T06:01:51.413Z,24.57
2018-07-25T06:06:54.987Z,20.47
2018-07-25T06:11:58.577Z,21.03
2018-07-25T06:17:02.184Z,22.20
2018-07-25T06:22:06.096Z,19.53
2018-07-25T06:27:09.672Z,24.03
2018-07-25T06:32:13.528Z,22.50
2018-07-25T06:37:17.071Z,23.70
2018-07-25T06:42:20.660Z,21.07
2018-07-25T06:47:23.924Z,20.57
2018-07-25T06:52:27.645Z,20.03
2018-07-25T06:57:31.263Z,19.70
2018-07-25T07:02:34.943Z,21.03
2018-07-25T07:07:38.854Z,19.07
2018-07-25T07:12:42.414Z,24.60
2018-07-25T07:17:46.055Z,20.30
2018-07-25T07:22:49.757Z,24.33
2018-07-25T07:27:53.349Z,18.67
2018-07-25T07:32:57.089Z,22.90
2018-07-25T07:38:00.816Z,29.50
2018-07-25T07:43:04.455Z,20.40
2018-07-25T07:48:08.106Z,23.93
2018-07-25T07:53:11.696Z,18.13
2018-07-25T07:58:15.304Z,20.50
2018-07-25T08:03:18.915Z,18.40
2018-07-25T08:08:22.289Z,19.13
2018-07-25T08:13:25.863Z,18.83
2018-07-25T08:18:29.458Z,20.60
2018-07-25T08:23:33.091Z,18.40
2018-07-25T08:28:36.708Z,16.53
2018-07-25T08:33:40.303Z,15.80
2018-07-25T08:38:44.768Z,20.83
2018-07-25T08:43:48.358Z,20.83
2018-07-25T08:48:51.929Z,15.63
2018-07-25T08:53:55.819Z,15.53
2018-07-25T08:59:00.274Z,14.43
2018-07-25T09:04:03.961Z,15.30
2018-07-25T09:09:09.740Z,18.40
2018-07-25T09:14:13.286Z,12.77
2018-07-25T09:19:16.856Z,13.50
2018-07-25T09:24:20.469Z,12.07
2018-07-25T09:29:24.063Z,14.47
2018-07-25T09:34:27.686Z,12.10
2018-07-25T09:39:31.254Z,14.63
2018-07-25T09:44:34.869Z,10.77
2018-07-25T09:49:38.455Z,10.43
2018-07-25T09:54:42.155Z,11.00
2018-07-25T09:59:45.730Z,9.27
2018-07-25T10:04:49.314Z,11.83
2018-07-25T10:09:52.986Z,10.30
2018-07-25T10:14:57.053Z,11.67
2018-07-25T10:20:01.624Z,13.20
2018-07-25T10:25:05.443Z,10.43
2018-07-25T10:30:09.032Z,12.30
2018-07-25T10:35:12.591Z,12.47
2018-07-25T10:40:15.867Z,10.33
2018-07-25T10:45:20.307Z,10.70
2018-07-25T10:50:24.156Z,12.37
2018-07-25T10:55:27.754Z,10.70
2018-07-25T11:00:31.326Z,13.13
2018-07-25T11:05:35.364Z,11.77
2018-07-25T11:10:38.943Z,13.50
2018-07-25T11:15:45.177Z,9.90
2018-07-25T11:20:49.161Z,10.20
2018-07-25T11:25:53.074Z,14.23
2018-07-25T11:30:57.899Z,7.50
2018-07-25T11:36:01.431Z,7.80
2018-07-25T11:41:05.305Z,9.27
2018-07-25T11:46:09.209Z,6.80
2018-07-25T11:51:13.064Z,9.80
2018-07-25T11:56:16.694Z,7.30
2018-07-25T12:01:20.382Z,6.53
2018-07-25T12:06:24.093Z,6.70
2018-07-25T12:11:28.623Z,6.47
2018-07-25T12:16:32.227Z,7.23
2018-07-25T12:21:36.473Z,6.70
2018-07-25T12:26:40.115Z,7.60
2018-07-25T12:31:44.040Z,10.00
2018-07-25T12:36:48.046Z,7.90
2018-07-25T12:41:54.549Z,8.50
2018-07-25T12:46:58.932Z,9.17
2018-07-25T12:52:02.538Z,7.73
2018-07-25T12:57:06.238Z,8.70
2018-07-25T13:02:10.268Z,9.70
2018-07-25T13:07:14.641Z,9.10
2018-07-25T13:12:18.598Z,7.83
2018-07-25T13:17:22.148Z,8.30
2018-07-25T13:22:25.698Z,7.73
2018-07-25T13:27:31.422Z,7.70
2018-07-25T13:32:35.034Z,7.43
2018-07-25T13:37:38.898Z,7.33
2018-07-25T13:42:42.558Z,7.70
2018-07-25T13:47:46.338Z,11.10
2018-07-25T13:52:50.211Z,7.37
2018-07-25T13:57:53.988Z,10.40
2018-07-25T14:02:57.970Z,8.23
2018-07-25T14:13:21.327Z,7.73
2018-07-25T14:18:25.589Z,6.50
2018-07-25T14:23:29.522Z,6.67
2018-07-25T14:28:42.116Z,12.00
2018-07-25T14:33:46.656Z,8.97
2018-07-25T14:38:50.186Z,6.83
2018-07-25T14:43:54.352Z,10.83
2018-07-25T14:48:57.940Z,15.40
2018-07-25T14:54:01.820Z,7.10
2018-07-25T14:59:05.440Z,6.50
2018-07-25T15:04:09.301Z,7.77
2018-07-25T15:09:13.086Z,5.93
2018-07-25T15:14:16.720Z,5.30
2018-07-25T15:19:20.297Z,7.07
2018-07-25T15:24:23.851Z,6.40
2018-07-25T15:29:27.537Z,6.90
2018-07-25T15:34:32.017Z,9.30
2018-07-25T15:39:35.611Z,8.67
2018-07-25T15:44:39.202Z,5.03
2018-07-25T15:49:42.823Z,6.70
2018-07-25T15:54:46.436Z,14.47
2018-07-25T15:59:50.072Z,6.40
2018-07-25T16:04:53.759Z,5.30
2018-07-25T16:09:58.184Z,9.63
2018-07-25T16:15:01.766Z,11.17
2018-07-25T16:20:09.020Z,12.43
2018-07-25T16:25:12.620Z,4.83
2018-07-25T16:30:16.187Z,6.23
2018-07-25T16:35:20.027Z,7.93
2018-07-25T16:40:23.639Z,5.90
2018-07-25T16:45:27.969Z,8.30
2018-07-25T16:50:31.513Z,5.97
2018-07-25T16:55:35.086Z,5.40
2018-07-25T17:00:38.659Z,5.87
2018-07-25T17:05:42.943Z,9.37
2018-07-25T17:10:46.514Z,7.50
2018-07-25T17:15:50.123Z,10.47
2018-07-25T17:20:54.042Z,6.57
2018-07-25T17:25:57.602Z,8.17
2018-07-25T17:31:01.154Z,6.30
2018-07-25T17:36:04.780Z,10.73
2018-07-25T17:41:08.370Z,11.37
2018-07-25T17:46:12.218Z,5.87
2018-07-25T17:51:16.566Z,7.23
2018-07-25T17:56:20.761Z,6.00
2018-07-25T18:01:24.348Z,8.60
2018-07-25T18:06:28.209Z,4.67
2018-07-25T18:11:36.039Z,7.33
2018-07-25T18:16:40.368Z,5.83
2018-07-25T18:21:43.947Z,11.57
2018-07-25T18:26:47.519Z,5.60
2018-07-25T18:31:51.464Z,6.90
2018-07-25T18:36:55.763Z,7.40
2018-07-25T18:41:59.487Z,5.10
2018-07-25T18:47:03.573Z,5.97
2018-07-25T18:52:08.044Z,7.13
2018-07-25T18:57:11.587Z,7.30
2018-07-25T19:02:15.238Z,6.30
2018-07-25T19:07:18.790Z,7.03
2018-07-25T19:12:22.882Z,7.73
2018-07-25T19:17:26.872Z,7.00
2018-07-25T19:22:30.408Z,6.67
2018-07-25T19:27:33.991Z,7.57
2018-07-25T19:32:38.048Z,6.97
2018-07-25T19:37:41.910Z,7.90
2018-07-25T19:42:45.591Z,5.33
2018-07-25T19:47:49.172Z,8.10
2018-07-25T19:52:52.683Z,8.53
2018-07-25T19:57:56.238Z,7.07
2018-07-25T20:03:00.011Z,8.37
2018-07-25T20:08:03.757Z,5.93
2018-07-25T20:13:07.342Z,8.03
2018-07-25T20:18:10.872Z,6.33
2018-07-25T20:23:14.727Z,7.60
2018-07-25T20:28:20.007Z,7.67
2018-07-25T20:33:23.542Z,7.97
2018-07-25T20:38:28.841Z,7.20
2018-07-25T20:43:33.129Z,6.10
2018-07-25T20:48:36.707Z,9.97
2018-07-25T20:53:40.319Z,6.80
2018-07-25T20:58:44.240Z,7.43
2018-07-25T21:03:47.840Z,7.90
2018-07-25T21:08:51.915Z,9.63
2018-07-25T21:13:55.506Z,7.03
2018-07-25T21:18:59.021Z,9.27
2018-07-25T21:24:02.656Z,6.63
2018-07-25T21:29:06.262Z,5.37
2018-07-25T21:34:09.837Z,10.73
2018-07-25T21:39:14.207Z,8.73
2018-07-25T21:44:17.769Z,9.10
2018-07-25T21:49:21.299Z,7.60
2018-07-25T21:54:45.332Z,6.33
2018-07-25T21:59:49.369Z,8.90
2018-07-25T22:04:53.467Z,7.93
2018-07-25T22:09:57.002Z,8.60
2018-07-25T22:15:01.465Z,5.57
2018-07-25T22:20:06.956Z,6.20
2018-07-25T22:25:11.866Z,8.70
2018-07-25T22:30:15.907Z,9.03
2018-07-25T22:35:19.759Z,11.03
2018-07-25T22:45:34.153Z,7.30
2018-07-25T22:50:39.167Z,8.07
2018-07-25T22:55:42.730Z,8.17
2018-07-25T23:00:46.292Z,11.73
2018-07-25T23:05:49.832Z,6.50
2018-07-25T23:10:53.402Z,7.00
2018-07-25T23:15:56.984Z,7.17
2018-07-25T23:21:00.660Z,8.57
2018-07-25T23:26:04.526Z,7.03
2018-07-25T23:31:10.027Z,6.97
2018-07-25T23:36:14.044Z,7.63
2018-07-25T23:41:17.807Z,10.50
2018-07-25T23:46:21.394Z,7.73
2018-07-25T23:51:25.226Z,6.00
2018-07-25T23:56:28.893Z,7.73
